createdAt,value
2019-04-05T00:02:28.109Z,33.00
2019-04-05T00:04:54.977Z,26.27
2019-04-05T00:07:22.594Z,31.40
2019-04-05T00:09:49.404Z,32.60
2019-04-05T00:12:15.989Z,26.37
2019-04-05T00:14:42.472Z,27.70
2019-04-05T00:17:08.890Z,25.63
2019-04-05T00:19:35.541Z,26.10
2019-04-05T00:22:04.182Z,26.67
2019-04-05T00:24:31.021Z,24.10
2019-04-05T00:26:57.790Z,28.77
2019-04-05T00:29:26.442Z,36.17
2019-04-05T00:31:54.999Z,29.50
2019-04-05T00:34:22.199Z,33.60
2019-04-05T00:36:48.653Z,27.83
2019-04-05T00:39:15.460Z,28.83
2019-04-05T00:41:42.356Z,28.57
2019-04-05T00:44:09.163Z,31.50
2019-04-05T00:46:35.967Z,39.80
2019-04-05T00:49:02.643Z,28.97
2019-04-05T00:51:29.591Z,28.10
2019-04-05T00:53:57.914Z,22.67
2019-04-05T00:56:24.728Z,29.30
2019-04-05T00:58:51.409Z,33.93
2019-04-05T01:01:18.564Z,27.63
2019-04-05T01:03:45.670Z,34.57
2019-04-05T01:06:12.307Z,32.73
2019-04-05T01:08:39.919Z,27.47
2019-04-05T01:11:06.917Z,29.07
2019-04-05T01:13:34.042Z,36.37
2019-04-05T01:16:00.509Z,32.20
2019-04-05T01:18:29.924Z,29.50
2019-04-05T01:21:00.350Z,32.27
2019-04-05T01:23:28.349Z,28.63
2019-04-05T01:25:58.604Z,28.63
2019-04-05T01:28:25.348Z,33.40
2019-04-05T01:30:52.659Z,30.57
2019-04-05T01:33:20.283Z,31.30
2019-04-05T01:35:47.849Z,29.13
2019-04-05T01:38:15.391Z,26.63
2019-04-05T01:40:44.751Z,27.47
2019-04-05T01:43:12.133Z,28.27
2019-04-05T01:45:52.924Z,39.10
2019-04-05T01:48:13.102Z,25.30
2019-04-05T01:50:39.531Z,41.17
2019-04-05T01:53:06.215Z,34.57
2019-04-05T01:55:32.875Z,34.40
2019-04-05T01:57:59.513Z,29.40
2019-04-05T02:00:26.051Z,30.97
2019-04-05T02:02:52.724Z,36.57
2019-04-05T02:05:19.384Z,31.93
2019-04-05T02:07:45.944Z,29.30
2019-04-05T02:10:13.320Z,28.47
2019-04-05T02:12:39.921Z,33.53
2019-04-05T02:15:07.147Z,33.40
2019-04-05T02:17:38.407Z,35.33
2019-04-05T02:20:08.820Z,33.73
2019-04-05T02:22:35.773Z,27.63
2019-04-05T02:25:05.227Z,34.67
2019-04-05T02:27:32.531Z,30.53
2019-04-05T02:29:59.991Z,35.27
2019-04-05T02:32:26.731Z,30.00
2019-04-05T02:34:53.661Z,34.03
2019-04-05T02:37:20.158Z,32.53
2019-04-05T02:39:46.771Z,37.03
2019-04-05T02:42:13.917Z,31.80
2019-04-05T02:44:43.297Z,34.13
2019-04-05T02:47:11.634Z,30.47
2019-04-05T02:49:40.379Z,34.63
2019-04-05T02:52:07.531Z,32.13
2019-04-05T02:54:43.083Z,30.10
2019-04-05T02:57:11.187Z,34.17
2019-04-05T02:59:37.900Z,34.00
2019-04-05T03:02:05.156Z,38.00
2019-04-05T03:04:32.126Z,35.17
2019-04-05T03:06:59.660Z,31.20
2019-04-05T03:09:27.115Z,36.40
2019-04-05T03:11:55.466Z,29.67
2019-04-05T03:14:22.447Z,40.23
2019-04-05T03:16:52.344Z,29.07
2019-04-05T03:19:23.020Z,39.90
2019-04-05T03:21:52.092Z,43.77
2019-04-05T03:24:22.472Z,31.33
2019-04-05T03:26:52.795Z,29.23
2019-04-05T03:29:19.633Z,39.87
2019-04-05T03:31:47.108Z,39.37
2019-04-05T03:34:17.054Z,32.53
2019-04-05T03:36:43.643Z,35.67
2019-04-05T03:39:10.426Z,36.23
2019-04-05T03:41:37.670Z,40.53
2019-04-05T03:44:05.115Z,36.83
2019-04-05T03:46:31.917Z,35.50
2019-04-05T03:49:07.091Z,30.90
2019-04-05T03:51:52.943Z,35.17
2019-04-05T03:54:19.900Z,33.20
2019-04-05T03:56:46.596Z,34.03
2019-04-05T03:59:13.657Z,36.83
2019-04-05T04:01:41.154Z,35.63
2019-04-05T04:04:07.743Z,40.23
2019-04-05T04:06:34.505Z,35.23
2019-04-05T04:09:01.305Z,31.17
2019-04-05T04:11:28.566Z,33.83
2019-04-05T04:13:57.183Z,45.80
2019-04-05T04:16:24.988Z,44.37
2019-04-05T04:18:55.801Z,32.13
2019-04-05T04:21:51.889Z,35.97
2019-04-05T04:24:19.727Z,37.13
2019-04-05T04:26:47.062Z,47.87
2019-04-05T04:29:18.619Z,47.90
2019-04-05T04:31:46.194Z,47.67
2019-04-05T04:34:13.656Z,37.57
2019-04-05T04:36:41.749Z,38.20
2019-04-05T04:39:10.170Z,44.80
2019-04-05T04:41:37.090Z,46.57
2019-04-05T04:44:04.851Z,35.13
2019-04-05T04:46:36.140Z,36.23
2019-04-05T04:49:03.065Z,36.50
2019-04-05T04:51:30.812Z,40.77
2019-04-05T04:53:58.361Z,41.20
2019-04-05T04:56:25.268Z,37.50
2019-04-05T04:58:52.253Z,38.53
2019-04-05T05:01:19.441Z,49.47
2019-04-05T05:03:46.463Z,36.10
2019-04-05T05:06:13.496Z,47.60
2019-04-05T05:08:40.418Z,40.57
2019-04-05T05:11:14.506Z,35.83
2019-04-05T05:13:37.411Z,42.47
2019-04-05T05:16:05.325Z,37.67
2019-04-05T05:18:32.535Z,39.10
2019-04-05T05:21:02.140Z,40.37
2019-04-05T05:23:30.467Z,39.27
2019-04-05T05:25:57.772Z,40.67
2019-04-05T05:28:24.539Z,35.67
2019-04-05T05:30:51.431Z,43.37
2019-04-05T05:33:18.284Z,43.70
2019-04-05T05:35:46.113Z,40.97
2019-04-05T05:38:13.312Z,38.40
2019-04-05T05:40:40.813Z,39.03
2019-04-05T05:43:07.266Z,35.37
2019-04-05T05:45:34.164Z,36.67
2019-04-05T05:48:01.942Z,41.10
2019-04-05T05:50:28.974Z,40.43
2019-04-05T05:52:56.639Z,36.30
2019-04-05T05:55:24.342Z,33.07
2019-04-05T05:57:54.944Z,36.40
2019-04-05T06:00:22.817Z,41.23
2019-04-05T06:02:50.787Z,35.60
2019-04-05T06:05:18.950Z,46.23
2019-04-05T06:07:49.430Z,34.03
2019-04-05T06:10:17.151Z,42.67
2019-04-05T06:12:43.822Z,38.50
2019-04-05T06:15:10.849Z,32.43
2019-04-05T06:17:38.193Z,37.17
2019-04-05T06:20:06.716Z,36.63
2019-04-05T06:25:22.703Z,37.90
2019-04-05T06:27:52.211Z,42.30
2019-04-05T06:30:18.978Z,37.63
2019-04-05T06:32:45.908Z,41.93
2019-04-05T06:35:12.538Z,36.87
2019-04-05T06:37:57.000Z,42.33
2019-04-05T06:40:25.067Z,41.63
2019-04-05T06:42:53.466Z,41.90
2019-04-05T06:45:20.611Z,37.37
2019-04-05T06:47:48.433Z,41.10
2019-04-05T06:50:16.921Z,44.37
2019-04-05T06:52:43.916Z,39.93
2019-04-05T06:55:10.591Z,37.43
2019-04-05T06:57:41.735Z,47.97
2019-04-05T07:00:08.329Z,41.37
2019-04-05T07:02:36.297Z,38.23
2019-04-05T07:05:05.885Z,40.40
2019-04-05T07:07:33.556Z,33.53
2019-04-05T07:10:00.410Z,42.27
2019-04-05T07:12:28.173Z,43.70
2019-04-05T07:14:56.348Z,34.47
2019-04-05T07:17:23.894Z,40.57
2019-04-05T07:19:50.598Z,41.43
2019-04-05T07:22:17.803Z,41.47
2019-04-05T07:24:45.959Z,36.20
2019-04-05T07:27:12.993Z,35.80
2019-04-05T07:29:39.988Z,40.60
2019-04-05T07:32:06.832Z,36.50
2019-04-05T07:34:33.464Z,35.73
2019-04-05T07:37:00.324Z,37.70
2019-04-05T07:39:28.873Z,39.60
2019-04-05T07:41:56.348Z,36.40
2019-04-05T07:44:23.114Z,39.90
2019-04-05T07:46:51.336Z,36.07
2019-04-05T07:49:18.363Z,36.03
2019-04-05T07:51:44.903Z,35.47
2019-04-05T07:54:11.504Z,36.60
2019-04-05T07:56:39.532Z,36.30
2019-04-05T07:59:06.063Z,32.83
2019-04-05T08:01:32.896Z,43.83
2019-04-05T08:03:59.630Z,36.03
2019-04-05T08:06:27.473Z,42.67
2019-04-05T08:09:02.278Z,38.63
2019-04-05T08:11:29.546Z,53.90
2019-04-05T08:13:59.656Z,46.30
2019-04-05T08:16:27.684Z,40.50
2019-04-05T08:18:57.972Z,46.97
2019-04-05T08:21:22.614Z,39.33
2019-04-05T08:23:49.102Z,39.53
2019-04-05T08:26:15.691Z,37.50
2019-04-05T08:28:42.765Z,40.57
2019-04-05T08:31:11.016Z,36.13
2019-04-05T08:33:39.927Z,35.90
2019-04-05T08:36:07.225Z,37.97
2019-04-05T08:38:34.761Z,40.13
2019-04-05T08:41:02.253Z,44.60
2019-04-05T08:43:29.497Z,36.47
2019-04-05T08:45:56.219Z,35.43
2019-04-05T08:48:24.863Z,40.83
2019-04-05T08:50:52.593Z,34.27
2019-04-05T08:53:19.201Z,37.40
2019-04-05T08:55:45.786Z,32.60
2019-04-05T08:58:12.814Z,40.90
2019-04-05T09:00:39.359Z,38.37
2019-04-05T09:03:06.228Z,34.93
2019-04-05T09:05:33.501Z,41.07
2019-04-05T09:08:00.316Z,43.10
2019-04-05T09:10:27.026Z,35.30
2019-04-05T09:12:53.925Z,33.77
2019-04-05T09:15:20.381Z,37.33
2019-04-05T09:17:48.742Z,42.43
2019-04-05T09:20:16.613Z,34.97
2019-04-05T09:22:43.190Z,42.47
2019-04-05T09:25:10.255Z,41.03
2019-04-05T09:27:37.217Z,36.83
2019-04-05T09:30:15.635Z,37.03
2019-04-05T09:32:42.930Z,33.53
2019-04-05T09:35:11.677Z,39.33
2019-04-05T09:37:38.645Z,34.23
2019-04-05T09:40:06.626Z,44.80
2019-04-05T09:42:33.602Z,38.40
2019-04-05T09:45:03.283Z,34.53
2019-04-05T09:47:30.765Z,37.57
2019-04-05T09:49:57.298Z,47.40
2019-04-05T09:52:24.347Z,37.97
2019-04-05T09:54:51.681Z,32.27
2019-04-05T09:57:18.712Z,32.47
2019-04-05T09:59:45.370Z,36.20
2019-04-05T10:02:12.059Z,35.30
2019-04-05T10:04:39.378Z,44.73
2019-04-05T10:07:06.548Z,31.20
2019-04-05T10:09:33.726Z,29.83
2019-04-05T10:12:01.083Z,32.23
2019-04-05T10:14:31.203Z,44.37
2019-04-05T10:17:01.789Z,36.43
2019-04-05T10:19:29.341Z,34.20
2019-04-05T10:21:59.596Z,33.63
2019-04-05T10:24:28.181Z,36.23
2019-04-05T10:26:54.865Z,31.27
2019-04-05T10:29:21.956Z,34.73
2019-04-05T10:31:51.187Z,34.17
2019-04-05T10:34:17.664Z,29.90
2019-04-05T10:37:01.703Z,31.67
2019-04-05T10:45:17.607Z,42.47
2019-04-05T10:47:44.754Z,31.00
2019-04-05T10:50:13.881Z,38.50
2019-04-05T10:52:41.011Z,31.70
2019-04-05T10:55:09.776Z,33.30
2019-04-05T10:57:36.843Z,31.00
2019-04-05T11:00:08.077Z,42.00
2019-04-05T11:02:34.947Z,35.17
2019-04-05T11:05:01.410Z,31.63
2019-04-05T11:07:28.506Z,28.67
2019-04-05T11:09:54.936Z,29.80
2019-04-05T11:12:22.685Z,41.00
2019-04-05T11:14:51.049Z,35.17
2019-04-05T11:17:19.601Z,31.70
2019-04-05T11:19:46.455Z,33.80
2019-04-05T11:22:13.029Z,32.23
2019-04-05T11:24:41.290Z,31.67
2019-04-05T11:27:09.790Z,32.20
2019-04-05T11:29:40.284Z,29.33
2019-04-05T11:32:07.247Z,32.83
2019-04-05T11:34:36.475Z,25.03
2019-04-05T11:37:03.928Z,23.37
2019-04-05T11:42:27.525Z,30.73
2019-04-05T11:44:56.080Z,23.47
2019-04-05T11:47:29.642Z,39.77
2019-04-05T11:49:57.479Z,23.80
2019-04-05T11:52:24.839Z,30.43
2019-04-05T11:55:01.042Z,31.00
2019-04-05T11:57:32.623Z,35.50
2019-04-05T12:00:01.436Z,29.23
2019-04-05T12:05:20.366Z,22.70
2019-04-05T12:08:02.049Z,28.70
2019-04-05T12:10:31.962Z,28.37
2019-04-05T12:12:58.849Z,23.60
2019-04-05T12:15:27.813Z,27.10
2019-04-05T12:17:54.558Z,27.90
2019-04-05T12:20:22.830Z,39.80
2019-04-05T12:22:53.132Z,32.07
2019-04-05T12:25:28.472Z,30.03
2019-04-05T12:28:06.234Z,30.43
2019-04-05T12:30:28.550Z,42.63
2019-04-05T12:32:58.946Z,32.23
2019-04-05T12:35:37.586Z,33.60
2019-04-05T12:38:07.265Z,28.97
2019-04-05T12:40:36.235Z,34.33
2019-04-05T12:43:05.634Z,31.73
2019-04-05T12:45:39.632Z,28.70
2019-04-05T12:48:16.018Z,29.87
2019-04-05T12:53:33.359Z,27.10
2019-04-05T12:56:00.376Z,39.97
2019-04-05T12:58:33.636Z,39.57
2019-04-05T13:01:12.781Z,24.50
2019-04-05T13:03:43.418Z,27.60
2019-04-05T13:06:10.329Z,27.70
2019-04-05T13:08:39.069Z,32.63
2019-04-05T13:11:06.137Z,29.40
2019-04-05T13:13:36.576Z,31.43
2019-04-05T13:16:09.852Z,29.87
2019-04-05T13:18:40.491Z,30.47
2019-04-05T13:21:15.307Z,36.73
2019-04-05T13:24:12.693Z,31.07
2019-04-05T13:26:30.809Z,26.77
2019-04-05T13:28:58.165Z,22.23
2019-04-05T13:31:27.335Z,22.20
2019-04-05T13:33:55.457Z,24.40
2019-04-05T13:36:22.324Z,20.50
2019-04-05T13:41:40.438Z,27.50
2019-04-05T13:44:07.944Z,26.03
2019-04-05T13:46:38.234Z,22.67
2019-04-05T13:49:05.023Z,22.50
2019-04-05T13:51:41.733Z,27.87
2019-04-05T13:54:05.499Z,25.60
2019-04-05T13:56:34.476Z,21.90
2019-04-05T13:59:03.384Z,26.00
2019-04-05T14:01:30.533Z,20.77
2019-04-05T14:03:59.349Z,26.13
2019-04-05T14:06:28.914Z,23.73
2019-04-05T14:11:42.127Z,26.07
2019-04-05T14:14:12.225Z,23.87
2019-04-05T14:16:42.577Z,27.83
2019-04-05T14:19:18.424Z,25.10
2019-04-05T14:21:52.576Z,31.30
2019-04-05T14:24:18.989Z,30.10
2019-04-05T14:26:52.575Z,24.77
2019-04-05T14:29:21.741Z,24.73
2019-04-05T14:31:49.500Z,30.23
2019-04-05T14:34:18.652Z,29.87
2019-04-05T14:36:47.818Z,38.53
2019-04-05T14:39:18.123Z,31.23
2019-04-05T14:41:50.780Z,30.63
2019-04-05T14:44:21.040Z,37.70
2019-04-05T14:46:51.641Z,33.53
2019-04-05T14:49:20.652Z,27.50
2019-04-05T14:51:56.475Z,30.23
2019-04-05T15:00:15.176Z,28.87
2019-04-05T15:05:55.224Z,34.73
2019-04-05T15:08:26.913Z,27.03
2019-04-05T15:19:24.972Z,31.00
2019-04-05T15:22:05.907Z,35.83
2019-04-05T15:24:35.500Z,30.00
2019-04-05T15:30:01.824Z,27.57
2019-04-05T15:32:35.268Z,32.60
2019-04-05T15:38:02.167Z,34.00
2019-04-05T15:43:24.570Z,26.70
2019-04-05T15:45:52.682Z,31.03
2019-04-05T15:48:29.130Z,31.00
2019-04-05T15:53:46.759Z,30.00
2019-04-05T15:56:34.287Z,29.30
2019-04-05T15:59:05.653Z,25.57
2019-04-05T16:01:34.363Z,27.97
2019-04-05T16:04:13.675Z,32.87
2019-04-05T16:06:52.906Z,27.90
2019-04-05T16:12:17.253Z,28.93
2019-04-05T16:15:04.717Z,34.93
2019-04-05T16:17:38.670Z,31.60
2019-04-05T16:26:07.359Z,29.23
2019-04-05T16:28:49.314Z,35.23
2019-04-05T16:40:31.080Z,45.97
2019-04-05T16:43:06.299Z,33.80
2019-04-05T17:03:09.126Z,36.73
2019-04-05T17:57:15.400Z,43.70
2019-04-05T18:32:25.388Z,61.20
2019-04-05T18:41:27.665Z,61.87
2019-04-05T18:49:37.056Z,54.90
2019-04-05T18:55:06.888Z,53.07
2019-04-05T19:00:47.143Z,65.07
2019-04-05T19:23:33.352Z,53.40
2019-04-05T20:07:11.383Z,60.93
2019-04-05T20:21:09.422Z,95.40
2019-04-05T20:23:51.146Z,96.13
2019-04-05T20:29:10.065Z,105.07
2019-04-05T20:34:33.102Z,102.50
2019-04-05T20:42:49.745Z,110.13
2019-04-05T21:05:20.641Z,116.37
2019-04-05T21:16:25.370Z,118.73
2019-04-05T21:19:00.942Z,115.57
2019-04-05T21:21:30.947Z,122.47
2019-04-05T21:24:05.077Z,115.83
2019-04-05T21:26:38.539Z,123.73
2019-04-05T21:29:25.778Z,119.30
2019-04-05T21:34:45.214Z,138.97
2019-04-05T21:37:17.399Z,134.53
2019-04-05T21:39:48.790Z,123.47
2019-04-05T21:42:26.675Z,129.10
2019-04-05T21:50:40.312Z,140.67
2019-04-05T21:53:23.692Z,137.30
2019-04-05T21:55:57.110Z,130.30
2019-04-05T21:58:39.323Z,136.23
2019-04-05T22:06:57.812Z,130.60
2019-04-05T22:09:35.423Z,139.80
2019-04-05T22:17:43.097Z,102.00
2019-04-05T22:20:25.622Z,104.07
2019-04-05T22:31:41.013Z,109.33
2019-04-05T22:34:13.373Z,99.13
2019-04-05T22:48:06.763Z,95.50
2019-04-05T22:50:48.020Z,95.30
2019-04-05T23:04:40.828Z,130.73
2019-04-05T23:13:14.548Z,111.00
2019-04-05T23:18:33.585Z,86.60
2019-04-05T23:21:01.338Z,98.40
2019-04-05T23:23:30.954Z,95.30
2019-04-05T23:26:09.825Z,103.27
2019-04-05T23:31:41.877Z,112.33
2019-04-05T23:34:15.309Z,107.70
2019-04-05T23:36:43.397Z,106.33
2019-04-05T23:39:22.150Z,103.27
2019-04-05T23:44:31.059Z,91.93
2019-04-05T23:46:58.597Z,100.13
2019-04-05T23:49:25.192Z,120.27
2019-04-05T23:51:51.782Z,113.80
2019-04-05T23:54:21.211Z,124.43
2019-04-05T23:56:48.102Z,130.50
2019-04-05T23:59:15.451Z,128.93
